Time;durP1;ratioP1;P1;durP2;ratioP2;P2;SDS_P1;SDS_P2;PMS_P1;PMS_P2;Temp;Humidity;BMP_temperature;BMP_pressure;BME280_temperature;BME280_humidity;BME280_pressure;Samples;Min_cycle;Max_cycle;Signal;HPM_P1;HPM_P2
2023/04/16 00:01:30;;;;;;;3.70;2.50;;;5.40;99.90;;;;;;4958972;28;20030;-77
2023/04/16 00:03:55;;;;;;;2.15;1.95;;;5.40;99.90;;;;;;4958836;28;20031;-77
2023/04/16 00:06:21;;;;;;;3.13;2.45;;;5.40;99.90;;;;;;4975904;28;20027;-77
2023/04/16 00:08:47;;;;;;;4.95;2.45;;;5.40;99.90;;;;;;4958611;28;20485;-77
2023/04/16 00:11:13;;;;;;;4.22;2.80;;;5.40;99.90;;;;;;4976082;28;20115;-77
2023/04/16 00:13:40;;;;;;;4.85;2.40;;;5.40;99.90;;;;;;4958590;28;20049;-78
2023/04/16 00:16:06;;;;;;;3.95;2.97;;;5.40;99.90;;;;;;4975804;28;20510;-77
2023/04/16 00:18:31;;;;;;;2.90;2.35;;;5.50;99.90;;;;;;4958218;28;20440;-78
2023/04/16 00:20:58;;;;;;;5.30;2.45;;;5.40;99.90;;;;;;4976102;28;20118;-77
2023/04/16 00:23:24;;;;;;;5.28;2.88;;;5.50;99.90;;;;;;4975792;28;20026;-77
2023/04/16 00:25:50;;;;;;;3.85;2.17;;;5.40;99.90;;;;;;4958218;28;20511;-78
2023/04/16 00:28:16;;;;;;;3.58;3.00;;;5.40;99.90;;;;;;4977177;28;20444;-78
2023/04/16 00:30:41;;;;;;;4.13;2.40;;;5.50;99.90;;;;;;4959355;28;20061;-77
2023/04/16 00:33:07;;;;;;;2.28;1.95;;;5.40;99.90;;;;;;4958964;28;20166;-78
2023/04/16 00:35:33;;;;;;;3.30;2.58;;;5.40;99.90;;;;;;4958629;28;20073;-78
2023/04/16 00:37:59;;;;;;;2.15;1.95;;;5.40;99.90;;;;;;4975603;28;20414;-77
2023/04/16 00:40:28;;;;;;;2.70;2.30;;;5.40;99.90;;;;;;4975853;28;20026;-76
2023/04/16 00:42:54;;;;;;;5.30;2.38;;;5.30;99.90;;;;;;4958826;28;20031;-76
2023/04/16 00:45:19;;;;;;;4.32;2.85;;;5.30;99.90;;;;;;4958320;28;20070;-76
2023/04/16 00:47:45;;;;;;;2.80;2.45;;;5.40;99.90;;;;;;4975430;28;20098;-76
2023/04/16 00:50:11;;;;;;;3.53;3.20;;;5.30;99.90;;;;;;4975535;28;20023;-76
2023/04/16 00:52:37;;;;;;;3.60;2.50;;;5.40;99.90;;;;;;4973877;28;20022;-76
2023/04/16 00:55:05;;;;;;;2.90;2.42;;;5.40;99.90;;;;;;4975026;28;20081;-76
2023/04/16 00:57:31;;;;;;;3.85;2.13;;;5.40;99.90;;;;;;4974994;28;20033;-76
2023/04/16 00:59:57;;;;;;;2.90;2.40;;;5.40;99.90;;;;;;4958060;28;20030;-76
2023/04/16 01:02:23;;;;;;;7.07;2.40;;;5.40;99.90;;;;;;4975338;28;20074;-76
2023/04/16 01:04:50;;;;;;;2.42;2.22;;;5.40;99.90;;;;;;4957433;28;20062;-76
2023/04/16 01:07:16;;;;;;;4.25;2.80;;;5.40;99.90;;;;;;4974449;28;20031;-76
2023/04/16 01:09:42;;;;;;;2.53;2.33;;;5.40;99.90;;;;;;4957540;28;20125;-76
2023/04/16 01:12:07;;;;;;;2.33;2.10;;;5.40;99.90;;;;;;4975110;28;20086;-76
2023/04/16 01:14:35;;;;;;;2.30;2.10;;;5.40;99.90;;;;;;4957295;28;20050;-76
2023/04/16 01:17:01;;;;;;;2.53;2.33;;;5.50;99.90;;;;;;4957241;28;20034;-75
2023/04/16 01:19:30;;;;;;;2.80;2.15;;;5.40;99.90;;;;;;4957172;28;20058;-77
2023/04/16 01:21:56;;;;;;;1.88;1.65;;;5.40;99.90;;;;;;4957492;28;20258;-75
2023/04/16 01:24:21;;;;;;;2.38;2.17;;;5.30;99.90;;;;;;4957214;28;20033;-76
2023/04/16 01:26:47;;;;;;;1.92;1.58;;;5.30;99.90;;;;;;4957255;28;20031;-76
2023/04/16 01:29:13;;;;;;;1.90;1.67;;;5.30;99.90;;;;;;4957135;28;20675;-76
2023/04/16 01:31:38;;;;;;;1.42;1.33;;;5.20;99.90;;;;;;4957369;28;20031;-75
2023/04/16 01:34:04;;;;;;;2.17;1.90;;;5.10;99.90;;;;;;4974545;28;20027;-78
2023/04/16 01:36:30;;;;;;;2.20;2.00;;;5.10;99.90;;;;;;4956769;28;20026;-78
2023/04/16 01:38:55;;;;;;;1.83;1.73;;;5.00;99.90;;;;;;4956829;28;20030;-78
2023/04/16 01:41:21;;;;;;;3.90;2.50;;;5.00;99.90;;;;;;4956965;28;20423;-77
2023/04/16 01:43:47;;;;;;;4.00;2.55;;;5.00;99.90;;;;;;4956982;28;20488;-77
2023/04/16 01:46:15;;;;;;;4.43;1.85;;;5.00;99.90;;;;;;4956694;28;20038;-77
2023/04/16 01:48:41;;;;;;;1.90;1.70;;;4.90;99.90;;;;;;4956441;28;20037;-77
2023/04/16 01:51:06;;;;;;;2.00;1.80;;;4.90;99.90;;;;;;4955298;28;20033;-77
2023/04/16 01:53:32;;;;;;;2.83;2.33;;;4.90;99.90;;;;;;4956883;28;20114;-77
2023/04/16 01:55:58;;;;;;;1.80;1.70;;;5.00;99.90;;;;;;4973959;28;20069;-77
2023/04/16 01:58:24;;;;;;;1.63;1.52;;;4.90;99.90;;;;;;4956463;28;20061;-77
2023/04/16 02:00:49;;;;;;;3.03;2.10;;;4.90;99.90;;;;;;4956702;28;20026;-77
2023/04/16 02:03:16;;;;;;;1.85;1.60;;;4.90;99.90;;;;;;4956344;28;20089;-77
2023/04/16 02:05:42;;;;;;;2.33;2.00;;;4.90;99.90;;;;;;4956305;28;20031;-77
2023/04/16 02:08:07;;;;;;;2.22;1.52;;;4.80;99.90;;;;;;4973512;28;20082;-77
2023/04/16 02:10:33;;;;;;;2.38;1.88;;;4.80;99.90;;;;;;4956412;28;20029;-77
2023/04/16 02:12:59;;;;;;;3.13;1.90;;;4.80;99.90;;;;;;4973498;28;20109;-77
2023/04/16 02:15:24;;;;;;;2.15;1.98;;;4.80;99.90;;;;;;4956104;28;20058;-77
2023/04/16 02:17:55;;;;;;;6.00;3.03;;;4.80;99.90;;;;;;4956078;28;20035;-77
2023/04/16 02:20:21;;;;;;;4.90;2.30;;;4.80;99.90;;;;;;4973491;28;20072;-77
2023/04/16 02:22:46;;;;;;;2.42;2.20;;;4.80;99.90;;;;;;4955752;28;20026;-76
2023/04/16 02:25:15;;;;;;;2.53;2.20;;;4.80;99.90;;;;;;4973209;28;20369;-76
2023/04/16 02:27:41;;;;;;;2.20;2.03;;;4.80;99.90;;;;;;4955566;28;20030;-76
2023/04/16 02:30:07;;;;;;;3.67;2.20;;;4.90;99.90;;;;;;4973270;28;20141;-75
2023/04/16 02:32:32;;;;;;;3.25;2.22;;;4.80;99.90;;;;;;4956293;28;20476;-76
2023/04/16 02:34:58;;;;;;;2.85;1.50;;;4.80;99.90;;;;;;4955813;28;20073;-75
2023/04/16 02:37:24;;;;;;;2.40;2.20;;;4.80;99.90;;;;;;4955718;28;20029;-75
2023/04/16 02:39:50;;;;;;;2.67;1.95;;;4.70;99.90;;;;;;4956196;28;20073;-75
2023/04/16 02:42:16;;;;;;;1.77;1.63;;;4.70;99.90;;;;;;4973457;28;20031;-77
2023/04/16 02:44:41;;;;;;;2.75;1.63;;;4.70;99.90;;;;;;4955550;28;20041;-76
2023/04/16 02:47:07;;;;;;;2.95;2.13;;;4.70;99.90;;;;;;4955895;28;20030;-76
2023/04/16 02:49:34;;;;;;;5.55;1.90;;;4.70;99.90;;;;;;4955703;28;20023;-76
2023/04/16 02:52:00;;;;;;;2.20;2.00;;;4.60;99.90;;;;;;4954426;28;20025;-76
2023/04/16 02:54:25;;;;;;;2.58;2.35;;;4.70;99.90;;;;;;4972985;28;20588;-76
2023/04/16 02:56:51;;;;;;;2.35;1.65;;;4.60;99.90;;;;;;4973029;28;20068;-76
2023/04/16 02:59:17;;;;;;;1.50;1.40;;;4.60;99.90;;;;;;4955576;28;20027;-76
2023/04/16 03:01:42;;;;;;;2.03;1.70;;;4.60;99.90;;;;;;4955909;28;20027;-76
2023/04/16 03:04:08;;;;;;;1.52;1.42;;;4.50;99.90;;;;;;4973098;28;20073;-76
2023/04/16 03:06:34;;;;;;;2.28;2.00;;;4.50;99.90;;;;;;4972716;28;20066;-76
2023/04/16 03:08:59;;;;;;;5.45;2.83;;;4.50;99.90;;;;;;4955510;28;20484;-76
2023/04/16 03:11:25;;;;;;;7.38;3.38;;;4.50;99.90;;;;;;4955636;28;20067;-76
2023/04/16 03:13:51;;;;;;;2.63;1.98;;;4.50;99.90;;;;;;4955816;28;20114;-76
2023/04/16 03:16:16;;;;;;;4.00;2.78;;;4.40;99.90;;;;;;4955052;28;20023;-76
2023/04/16 03:18:43;;;;;;;3.42;1.80;;;4.40;99.90;;;;;;4972549;28;20031;-76
2023/04/16 03:21:08;;;;;;;2.38;2.17;;;4.50;99.90;;;;;;4955666;28;20031;-76
2023/04/16 03:23:35;;;;;;;2.20;1.85;;;4.40;99.90;;;;;;4973022;28;20029;-76
2023/04/16 03:26:00;;;;;;;2.03;1.83;;;4.40;99.90;;;;;;4972508;28;20031;-76
2023/04/16 03:28:26;;;;;;;2.38;1.98;;;4.40;99.90;;;;;;4971537;28;20039;-76
2023/04/16 03:30:52;;;;;;;2.53;1.70;;;4.40;99.90;;;;;;4955639;28;20023;-76
2023/04/16 03:33:19;;;;;;;2.22;2.03;;;4.30;99.90;;;;;;4955602;28;20427;-76
2023/04/16 03:35:45;;;;;;;1.60;1.48;;;4.30;99.90;;;;;;4975847;28;20437;-76
2023/04/16 03:38:11;;;;;;;2.53;2.33;;;4.30;99.90;;;;;;4958949;28;20054;-76
2023/04/16 03:40:37;;;;;;;1.83;1.65;;;4.30;99.90;;;;;;4959025;28;20447;-76
2023/04/16 03:43:03;;;;;;;2.00;1.80;;;4.30;99.90;;;;;;4959161;28;20062;-76
2023/04/16 03:45:28;;;;;;;2.92;2.03;;;4.30;99.90;;;;;;4975883;28;20027;-76
2023/04/16 03:47:54;;;;;;;3.15;2.15;;;4.30;99.90;;;;;;4975944;28;20530;-76
2023/04/16 03:50:20;;;;;;;2.22;1.75;;;4.30;99.90;;;;;;4959124;28;20507;-76
2023/04/16 03:52:48;;;;;;;1.80;1.70;;;4.20;99.90;;;;;;4957626;28;20022;-76
2023/04/16 03:55:14;;;;;;;1.70;1.60;;;4.20;99.90;;;;;;4976191;28;20019;-76
2023/04/16 03:57:40;;;;;;;1.63;1.52;;;4.20;99.90;;;;;;4958478;28;20085;-75
2023/04/16 04:00:07;;;;;;;3.63;2.33;;;4.20;99.90;;;;;;4958909;28;20043;-76
2023/04/16 04:02:33;;;;;;;1.70;1.60;;;4.20;99.90;;;;;;4976361;28;20507;-76
2023/04/16 04:04:58;;;;;;;1.40;1.30;;;4.20;99.90;;;;;;4975676;28;20103;-76
2023/04/16 04:07:24;;;;;;;3.03;1.23;;;4.20;99.90;;;;;;4958355;28;20034;-76
2023/04/16 04:09:50;;;;;;;1.70;1.60;;;4.20;99.90;;;;;;4958866;28;20026;-76
2023/04/16 04:12:15;;;;;;;2.00;1.55;;;4.30;99.90;;;;;;4976095;28;20113;-76
2023/04/16 04:14:41;;;;;;;1.80;1.70;;;4.20;99.90;;;;;;4975742;28;20449;-76
2023/04/16 04:17:07;;;;;;;1.30;1.20;;;4.30;99.90;;;;;;4958771;28;20546;-76
2023/04/16 04:19:33;;;;;;;2.47;1.77;;;4.30;99.90;;;;;;4975560;28;20499;-76
2023/04/16 04:21:59;;;;;;;2.03;1.88;;;4.30;99.90;;;;;;4975688;28;20035;-76
2023/04/16 04:24:25;;;;;;;3.20;2.45;;;4.30;99.90;;;;;;4975417;28;20037;-76
2023/04/16 04:26:51;;;;;;;3.65;2.22;;;4.30;99.90;;;;;;4958055;28;20034;-75
2023/04/16 04:29:17;;;;;;;3.33;1.92;;;4.30;99.90;;;;;;4975388;28;20019;-76
2023/04/16 04:31:42;;;;;;;1.98;1.55;;;4.30;99.90;;;;;;4975696;28;20019;-76
2023/04/16 04:34:08;;;;;;;4.57;1.75;;;4.30;99.90;;;;;;4975645;28;20031;-76
2023/04/16 04:36:33;;;;;;;2.47;1.92;;;4.30;99.90;;;;;;4958081;28;20026;-76
2023/04/16 04:38:59;;;;;;;2.35;2.15;;;4.40;99.90;;;;;;4975322;28;20042;-76
2023/04/16 04:41:25;;;;;;;2.08;1.85;;;4.40;99.90;;;;;;4958316;28;20033;-75
2023/04/16 04:43:51;;;;;;;3.50;2.78;;;4.40;99.90;;;;;;4958274;28;20019;-75
2023/04/16 04:46:17;;;;;;;5.25;3.10;;;4.40;99.90;;;;;;4974537;28;20025;-77
2023/04/16 04:48:42;;;;;;;3.88;3.30;;;4.40;99.90;;;;;;4975005;28;20062;-76
2023/04/16 04:51:08;;;;;;;4.97;3.42;;;4.40;99.90;;;;;;4956618;28;20022;-76
2023/04/16 04:53:34;;;;;;;5.60;3.60;;;4.40;99.90;;;;;;4958031;28;20023;-76
2023/04/16 04:55:59;;;;;;;4.15;3.08;;;4.40;99.90;;;;;;4975062;28;20027;-76
2023/04/16 04:58:25;;;;;;;6.15;4.32;;;4.40;99.90;;;;;;4975070;28;20027;-76
2023/04/16 05:00:51;;;;;;;3.60;3.25;;;4.40;99.90;;;;;;4975165;28;20053;-76
2023/04/16 05:03:20;;;;;;;3.90;3.28;;;4.40;99.90;;;;;;4975197;28;20057;-76
2023/04/16 05:05:46;;;;;;;3.95;2.60;;;4.30;99.90;;;;;;4974757;28;20097;-77
2023/04/16 05:08:11;;;;;;;2.88;2.58;;;4.40;99.90;;;;;;4957504;28;20030;-75
2023/04/16 05:10:37;;;;;;;2.90;2.53;;;4.40;99.90;;;;;;4957743;28;20062;-76
2023/04/16 05:13:03;;;;;;;4.28;2.67;;;4.40;99.90;;;;;;4957744;28;20391;-76
2023/04/16 05:15:29;;;;;;;3.17;2.47;;;4.40;99.90;;;;;;4957195;28;20110;-76
2023/04/16 05:17:55;;;;;;;4.20;3.13;;;4.40;99.90;;;;;;4957260;28;20105;-76
2023/04/16 05:20:23;;;;;;;4.30;3.28;;;4.40;99.90;;;;;;4974862;28;20022;-75
2023/04/16 05:22:49;;;;;;;5.30;3.05;;;4.40;99.90;;;;;;4975868;28;20065;-77
2023/04/16 05:25:16;;;;;;;6.30;3.55;;;4.50;99.90;;;;;;4993896;28;20080;-77
2023/04/16 05:27:42;;;;;;;5.47;3.25;;;5.00;99.90;;;;;;4993757;28;20029;-77
2023/04/16 05:30:08;;;;;;;3.13;2.78;;;4.90;99.90;;;;;;4978733;28;20026;-75
2023/04/16 05:32:34;;;;;;;5.82;2.97;;;4.80;99.90;;;;;;4994223;28;20026;-75
2023/04/16 05:35:00;;;;;;;2.97;2.67;;;4.80;99.90;;;;;;4993731;28;20024;-75
2023/04/16 05:37:25;;;;;;;3.28;2.97;;;4.80;99.90;;;;;;4976118;28;20030;-76
2023/04/16 05:39:51;;;;;;;4.32;2.97;;;4.80;99.90;;;;;;4976550;28;20510;-76
2023/04/16 05:42:16;;;;;;;9.30;3.65;;;4.70;99.90;;;;;;4993948;28;20030;-75
2023/04/16 05:44:42;;;;;;;2.65;2.45;;;4.80;99.90;;;;;;4993382;28;20030;-75
2023/04/16 05:47:08;;;;;;;3.95;2.70;;;4.80;99.90;;;;;;4975025;28;20479;-75
2023/04/16 05:49:36;;;;;;;5.82;2.42;;;4.80;99.90;;;;;;4974027;28;20466;-76
2023/04/16 05:52:02;;;;;;;3.38;3.08;;;4.90;99.90;;;;;;4972666;28;20025;-75
2023/04/16 05:54:28;;;;;;;2.67;2.47;;;5.00;99.90;;;;;;4956594;28;20022;-76
2023/04/16 05:56:53;;;;;;;1.98;1.67;;;5.00;99.90;;;;;;4955804;28;20033;-76
2023/04/16 05:59:19;;;;;;;1.92;1.80;;;5.00;99.90;;;;;;4956651;28;20023;-76
2023/04/16 06:01:45;;;;;;;2.55;2.15;;;5.10;99.90;;;;;;4956871;28;20030;-75
2023/04/16 06:04:10;;;;;;;3.20;2.05;;;5.10;99.90;;;;;;4956752;28;20559;-76
2023/04/16 06:06:36;;;;;;;2.67;2.25;;;5.20;99.90;;;;;;4956328;28;20035;-75
2023/04/16 06:09:03;;;;;;;2.33;2.13;;;5.20;99.90;;;;;;4956415;28;20023;-76
2023/04/16 06:11:31;;;;;;;3.70;2.83;;;5.30;99.90;;;;;;4956869;28;20446;-76
2023/04/16 06:13:57;;;;;;;2.55;2.35;;;5.30;99.90;;;;;;4973803;28;20023;-75
2023/04/16 06:16:23;;;;;;;1.90;1.73;;;5.50;99.90;;;;;;4973443;28;20029;-75
2023/04/16 06:18:48;;;;;;;1.75;1.63;;;5.50;99.90;;;;;;4973103;28;20030;-77
2023/04/16 06:21:15;;;;;;;2.20;2.03;;;5.50;99.90;;;;;;4973797;28;20030;-75
2023/04/16 06:23:40;;;;;;;2.67;1.67;;;5.60;99.90;;;;;;4956173;28;20038;-76
2023/04/16 06:26:06;;;;;;;1.50;1.40;;;5.70;99.90;;;;;;4956040;28;20031;-75
2023/04/16 06:28:31;;;;;;;2.08;1.98;;;5.70;99.90;;;;;;4973203;28;20063;-76
2023/04/16 06:30:58;;;;;;;3.63;2.10;;;5.80;99.90;;;;;;4973621;28;20027;-75
2023/04/16 06:33:24;;;;;;;3.83;1.88;;;5.90;99.90;;;;;;4956186;28;20070;-76
2023/04/16 06:35:49;;;;;;;2.05;1.85;;;6.00;99.90;;;;;;4955836;28;20050;-76
2023/04/16 06:38:15;;;;;;;6.93;2.63;;;6.00;99.90;;;;;;4973033;28;20055;-76
2023/04/16 06:40:41;;;;;;;2.30;1.77;;;6.00;99.90;;;;;;4956098;28;20049;-75
2023/04/16 06:43:07;;;;;;;2.10;1.92;;;6.20;99.90;;;;;;4955859;28;20482;-76
2023/04/16 06:45:33;;;;;;;2.60;1.80;;;6.20;99.90;;;;;;4973056;28;20037;-75
2023/04/16 06:47:59;;;;;;;1.75;1.58;;;6.30;99.90;;;;;;4972843;28;20037;-76
2023/04/16 06:50:25;;;;;;;1.92;1.83;;;6.40;99.90;;;;;;4972442;28;20019;-76
2023/04/16 06:52:51;;;;;;;2.22;2.03;;;6.50;99.90;;;;;;4955564;28;20605;-76
2023/04/16 06:55:17;;;;;;;2.42;2.20;;;6.60;99.90;;;;;;4972725;28;20095;-76
2023/04/16 06:57:43;;;;;;;2.40;1.88;;;7.00;99.90;;;;;;4972870;28;20035;-76
2023/04/16 07:00:09;;;;;;;2.78;1.60;;;6.90;99.90;;;;;;4955921;28;20035;-75
2023/04/16 07:02:35;;;;;;;3.60;2.30;;;6.90;99.90;;;;;;4973128;28;20446;-76
2023/04/16 07:05:00;;;;;;;2.50;2.08;;;7.00;99.90;;;;;;4955330;28;20117;-76
2023/04/16 07:07:26;;;;;;;2.60;2.03;;;7.00;99.90;;;;;;4955297;28;20038;-76
2023/04/16 07:09:51;;;;;;;2.25;1.80;;;7.10;99.90;;;;;;4955541;28;20019;-76
2023/04/16 07:12:17;;;;;;;2.03;1.92;;;7.10;99.90;;;;;;4955832;28;20030;-76
2023/04/16 07:14:43;;;;;;;2.08;1.85;;;7.20;99.90;;;;;;4972616;28;20030;-76
2023/04/16 07:17:08;;;;;;;2.38;2.17;;;7.30;99.90;;;;;;4972858;28;20073;-76
2023/04/16 07:19:34;;;;;;;2.42;2.22;;;8.60;99.90;;;;;;4972525;28;20392;-76
2023/04/16 07:22:00;;;;;;;1.98;1.67;;;8.30;99.90;;;;;;4972968;28;20039;-76
2023/04/16 07:24:26;;;;;;;2.25;2.05;;;8.10;99.90;;;;;;4955514;28;20046;-77
2023/04/16 07:26:52;;;;;;;2.80;2.00;;;8.10;99.90;;;;;;4955262;28;20035;-76
2023/04/16 07:29:17;;;;;;;3.40;2.10;;;8.00;99.90;;;;;;4955285;28;20023;-76
2023/04/16 07:31:44;;;;;;;3.17;1.58;;;8.00;99.90;;;;;;4955498;28;20030;-76
2023/04/16 07:34:10;;;;;;;2.38;1.75;;;8.00;99.90;;;;;;4955450;28;20026;-75
2023/04/16 07:36:35;;;;;;;2.75;1.85;;;8.00;99.90;;;;;;4955189;28;20563;-75
2023/04/16 07:39:01;;;;;;;4.32;1.70;;;8.00;99.90;;;;;;4972364;28;20027;-76
2023/04/16 07:41:28;;;;;;;2.03;1.65;;;8.10;99.90;;;;;;4972765;28;20063;-76
2023/04/16 07:43:54;;;;;;;1.98;1.83;;;8.20;99.90;;;;;;4972833;28;20045;-76
2023/04/16 07:46:20;;;;;;;2.13;1.67;;;8.40;99.90;;;;;;4972387;28;20452;-76
2023/04/16 07:48:46;;;;;;;1.70;1.60;;;8.50;99.90;;;;;;4953061;28;20218;-76
2023/04/16 07:51:12;;;;;;;2.10;1.98;;;8.70;99.90;;;;;;4972328;28;20395;-77
2023/04/16 07:53:38;;;;;;;3.00;1.65;;;8.80;99.90;;;;;;4972070;28;20066;-76
2023/04/16 07:56:04;;;;;;;2.15;1.75;;;8.80;99.90;;;;;;4971844;28;20031;-75
2023/04/16 07:58:29;;;;;;;1.63;1.50;;;8.90;99.90;;;;;;4972007;28;20027;-77
2023/04/16 08:00:55;;;;;;;1.98;1.58;;;8.90;99.90;;;;;;4972484;28;20100;-76
2023/04/16 08:03:21;;;;;;;1.52;1.20;;;9.00;99.90;;;;;;4972336;28;20030;-76
2023/04/16 08:05:47;;;;;;;1.70;1.17;;;9.10;99.90;;;;;;4954936;28;20027;-76
2023/04/16 08:08:12;;;;;;;1.98;1.40;;;9.30;99.90;;;;;;4954799;28;20085;-76
2023/04/16 08:10:38;;;;;;;1.45;1.35;;;9.30;99.90;;;;;;4972132;28;20023;-76
2023/04/16 08:13:04;;;;;;;1.20;1.10;;;9.30;99.90;;;;;;4954948;28;20435;-76
2023/04/16 08:15:30;;;;;;;1.58;1.23;;;9.30;99.90;;;;;;4954396;28;20509;-76
2023/04/16 08:17:55;;;;;;;2.45;1.85;;;9.20;99.90;;;;;;4954265;28;20027;-77
2023/04/16 08:20:21;;;;;;;1.42;1.30;;;9.30;99.90;;;;;;4972876;28;20106;-76
2023/04/16 08:22:47;;;;;;;0.93;0.93;;;9.40;99.90;;;;;;4975707;28;20025;-75
2023/04/16 08:25:14;;;;;;;0.98;0.90;;;9.50;99.90;;;;;;4973615;28;20037;-76
2023/04/16 08:27:40;;;;;;;1.15;1.05;;;9.50;99.90;;;;;;4975078;28;20027;-76
2023/04/16 08:30:06;;;;;;;2.25;1.02;;;9.60;99.90;;;;;;4958320;28;20550;-76
2023/04/16 08:32:32;;;;;;;1.15;1.05;;;9.60;99.90;;;;;;4975904;28;20480;-76
2023/04/16 08:34:58;;;;;;;1.48;0.75;;;9.70;99.90;;;;;;4975133;28;20055;-76
2023/04/16 08:37:24;;;;;;;2.00;1.60;;;9.60;99.90;;;;;;4974792;28;20487;-77
2023/04/16 08:39:50;;;;;;;1.83;1.00;;;9.80;99.90;;;;;;4975664;28;20034;-77
2023/04/16 08:42:39;;;;;;;1.30;1.20;;;9.90;99.90;;;;;;4958094;28;20039;-76
2023/04/16 08:45:25;;;;;;;0.73;0.70;;;10.10;99.90;;;;;;4945701;28;20066;-76
2023/04/16 08:47:52;;;;;;;1.27;1.17;;;9.90;99.90;;;;;;4974696;28;20050;-76
2023/04/16 08:50:25;;;;;;;2.05;1.70;;;10.10;99.90;;;;;;4957986;28;20551;-76
2023/04/16 08:53:13;;;;;;;2.35;2.03;;;10.20;99.90;;;;;;4975340;28;20026;-76
2023/04/16 08:55:45;;;;;;;4.47;1.10;;;10.20;99.90;;;;;;4957613;28;20575;-76
2023/04/16 08:58:19;;;;;;;0.75;0.65;;;10.20;99.90;;;;;;4957415;28;20023;-77
2023/04/16 09:00:46;;;;;;;0.77;0.70;;;10.20;99.90;;;;;;4975298;28;20058;-76
2023/04/16 09:03:12;;;;;;;0.70;0.70;;;10.40;99.90;;;;;;4974867;28;20029;-77
2023/04/16 09:05:38;;;;;;;1.00;0.73;;;10.40;99.90;;;;;;4957051;28;20121;-77
2023/04/16 09:08:05;;;;;;;1.15;0.82;;;10.30;99.90;;;;;;4957423;28;20037;-77
2023/04/16 09:10:31;;;;;;;0.50;0.50;;;10.20;99.90;;;;;;4957644;28;20023;-76
2023/04/16 09:12:58;;;;;;;1.17;0.52;;;10.20;99.90;;;;;;4957550;28;20034;-76
2023/04/16 09:15:24;;;;;;;0.68;0.60;;;10.40;99.90;;;;;;4957298;28;20177;-76
2023/04/16 09:17:51;;;;;;;0.50;0.50;;;10.50;99.90;;;;;;4974556;28;20034;-76
2023/04/16 09:20:17;;;;;;;0.70;0.50;;;10.70;99.90;;;;;;4975022;28;20400;-76
2023/04/16 09:22:43;;;;;;;0.52;0.50;;;10.70;99.90;;;;;;4974625;28;20023;-76
2023/04/16 09:25:10;;;;;;;0.30;0.30;;;10.80;99.90;;;;;;4957065;28;20109;-75
2023/04/16 09:27:37;;;;;;;1.00;0.55;;;10.90;99.90;;;;;;4974237;28;20043;-77
2023/04/16 09:30:21;;;;;;;0.75;0.52;;;11.00;99.90;;;;;;4974709;28;20365;-76
2023/04/16 09:32:48;;;;;;;0.70;0.50;;;10.80;99.90;;;;;;4957263;28;20118;-76
2023/04/16 09:35:16;;;;;;;0.75;0.75;;;10.70;99.90;;;;;;4974243;28;20455;-77
2023/04/16 09:37:42;;;;;;;3.63;0.90;;;11.00;99.90;;;;;;4973988;28;20031;-77
2023/04/16 09:40:08;;;;;;;0.75;0.70;;;11.20;99.90;;;;;;4974570;28;20505;-76
2023/04/16 09:42:39;;;;;;;0.38;0.38;;;11.40;99.90;;;;;;4957176;28;20114;-77
2023/04/16 09:45:05;;;;;;;0.80;0.80;;;11.30;99.90;;;;;;4956754;28;20050;-77
2023/04/16 09:47:42;;;;;;;0.63;0.32;;;11.40;99.90;;;;;;4956360;28;20105;-76
2023/04/16 09:50:12;;;;;;;0.80;0.60;;;11.20;99.90;;;;;;4956960;28;20027;-76
2023/04/16 09:52:38;;;;;;;0.40;0.40;;;11.20;99.90;;;;;;4957073;28;20026;-76
2023/04/16 09:55:04;;;;;;;0.50;0.50;;;11.40;99.90;;;;;;4956595;28;20050;-77
2023/04/16 09:57:30;;;;;;;0.50;0.50;;;11.40;99.90;;;;;;4972280;28;20027;-76
2023/04/16 10:00:04;;;;;;;2.42;0.65;;;11.40;98.60;;;;;;4957079;28;20037;-77
2023/04/16 10:02:31;;;;;;;0.35;0.30;;;11.30;99.90;;;;;;4957053;28;20034;-76
2023/04/16 10:05:00;;;;;;;0.73;0.60;;;11.50;99.30;;;;;;4973650;28;20082;-78
2023/04/16 10:07:33;;;;;;;0.60;0.50;;;11.60;99.90;;;;;;4955999;28;20447;-76
2023/04/16 10:09:58;;;;;;;0.45;0.45;;;11.50;99.90;;;;;;4973725;28;20106;-76
2023/04/16 10:12:24;;;;;;;0.40;0.40;;;11.40;99.80;;;;;;4956434;28;20464;-77
2023/04/16 10:14:50;;;;;;;0.25;0.25;;;11.40;97.90;;;;;;4954507;28;20023;-76
2023/04/16 10:17:16;;;;;;;0.85;0.80;;;11.50;98.20;;;;;;4973457;28;20502;-77
2023/04/16 10:19:42;;;;;;;1.35;0.60;;;11.50;99.50;;;;;;4973429;28;20034;-76
2023/04/16 10:22:08;;;;;;;0.77;0.52;;;11.60;98.60;;;;;;4973626;28;20034;-76
2023/04/16 10:24:34;;;;;;;0.30;0.22;;;11.60;98.60;;;;;;4955923;28;20170;-77
2023/04/16 10:27:00;;;;;;;0.70;0.60;;;11.70;99.00;;;;;;4973408;28;20062;-76
2023/04/16 10:29:28;;;;;;;1.42;0.47;;;11.70;97.70;;;;;;4973289;28;20105;-77
2023/04/16 10:31:55;;;;;;;0.63;0.63;;;11.80;97.90;;;;;;4973653;28;20023;-76
2023/04/16 10:34:22;;;;;;;0.40;0.32;;;11.90;96.90;;;;;;4955587;28;20504;-76
2023/04/16 10:36:51;;;;;;;0.20;0.20;;;11.80;97.20;;;;;;4973302;28;20022;-76
2023/04/16 10:39:19;;;;;;;0.95;0.70;;;12.00;96.80;;;;;;4956043;28;20024;-76
2023/04/16 10:41:45;;;;;;;0.32;0.32;;;11.80;95.70;;;;;;4973281;28;20027;-77
2023/04/16 10:44:11;;;;;;;0.60;0.30;;;11.80;97.30;;;;;;4955353;28;20022;-77
2023/04/16 10:46:49;;;;;;;0.40;0.38;;;11.90;95.90;;;;;;4972970;28;20476;-76
2023/04/16 10:49:17;;;;;;;0.35;0.35;;;11.90;95.60;;;;;;4955367;28;20027;-76
2023/04/16 10:51:59;;;;;;;0.47;0.38;;;12.10;94.20;;;;;;4973254;28;20142;-76
2023/04/16 10:54:27;;;;;;;0.47;0.43;;;12.10;94.30;;;;;;4973018;28;20042;-78
2023/04/16 10:56:56;;;;;;;0.30;0.30;;;12.20;95.20;;;;;;4973035;28;20023;-76
2023/04/16 10:59:23;;;;;;;0.30;0.30;;;12.60;96.30;;;;;;4972529;28;20472;-76
2023/04/16 11:01:54;;;;;;;0.40;0.35;;;12.70;95.40;;;;;;4954706;28;20027;-76
2023/04/16 11:04:20;;;;;;;0.38;0.32;;;12.70;93.80;;;;;;4955540;28;20019;-77
2023/04/16 11:07:12;;;;;;;0.88;0.88;;;12.60;93.20;;;;;;4972779;28;20077;-76
2023/04/16 11:09:43;;;;;;;0.20;0.20;;;12.50;92.50;;;;;;4955081;28;20029;-76
2023/04/16 11:12:12;;;;;;;0.95;0.25;;;12.50;92.70;;;;;;4973265;28;20514;-75
2023/04/16 11:14:42;;;;;;;0.20;0.20;;;12.50;93.10;;;;;;4972719;28;20019;-74
2023/04/16 11:17:08;;;;;;;0.30;0.30;;;12.70;92.20;;;;;;4972572;28;20031;-74
2023/04/16 11:19:38;;;;;;;1.30;0.30;;;12.80;92.60;;;;;;4972628;28;20069;-74
2023/04/16 11:22:04;;;;;;;0.30;0.30;;;12.80;92.90;;;;;;4973066;28;20034;-75
2023/04/16 11:24:33;;;;;;;0.32;0.32;;;13.10;93.40;;;;;;4955229;28;20027;-75
2023/04/16 11:26:59;;;;;;;0.47;0.47;;;12.90;92.30;;;;;;4972053;28;20058;-75
2023/04/16 11:29:25;;;;;;;0.55;0.50;;;12.90;91.30;;;;;;4972304;28;20061;-75
2023/04/16 11:31:52;;;;;;;0.60;0.60;;;13.00;92.20;;;;;;4972797;28;20106;-75
2023/04/16 11:34:18;;;;;;;0.60;0.40;;;13.30;92.20;;;;;;4955306;28;20110;-76
2023/04/16 11:36:45;;;;;;;0.52;0.35;;;13.20;92.00;;;;;;4972317;28;20019;-75
2023/04/16 11:39:11;;;;;;;0.40;0.40;;;13.00;91.60;;;;;;4954890;28;20094;-75
2023/04/16 11:41:45;;;;;;;0.90;0.50;;;12.90;92.10;;;;;;4972353;28;20514;-75
2023/04/16 11:44:25;;;;;;;0.93;0.47;;;12.90;92.20;;;;;;4971206;28;20086;-76
2023/04/16 11:46:52;;;;;;;0.38;0.30;;;13.10;91.30;;;;;;4954934;28;20089;-75
2023/04/16 11:49:29;;;;;;;2.75;0.80;;;13.10;89.80;;;;;;4955068;28;20031;-75
2023/04/16 11:51:55;;;;;;;1.45;0.80;;;13.40;91.30;;;;;;4972804;28;20391;-75
2023/04/16 11:54:22;;;;;;;0.47;0.43;;;13.80;92.40;;;;;;4955198;28;20114;-75
2023/04/16 11:56:49;;;;;;;0.60;0.43;;;13.80;90.60;;;;;;4975639;28;20030;-75
2023/04/16 11:59:16;;;;;;;0.70;0.50;;;13.80;91.40;;;;;;4958625;28;20026;-75
2023/04/16 12:01:49;;;;;;;0.52;0.52;;;13.60;91.00;;;;;;4976284;28;20023;-76
2023/04/16 12:04:17;;;;;;;0.85;0.65;;;13.40;91.20;;;;;;4958871;28;20113;-74
2023/04/16 12:07:06;;;;;;;1.35;0.95;;;13.20;91.40;;;;;;4976004;28;20027;-75
2023/04/16 12:09:33;;;;;;;1.17;0.73;;;13.10;92.30;;;;;;4975834;28;20030;-75
2023/04/16 12:12:00;;;;;;;0.60;0.60;;;12.70;92.00;;;;;;4976181;28;20050;-75
2023/04/16 12:14:25;;;;;;;0.60;0.60;;;12.80;93.30;;;;;;4975890;28;20031;-75
2023/04/16 12:16:51;;;;;;;0.77;0.73;;;12.90;92.90;;;;;;4975964;28;20106;-75
2023/04/16 12:19:17;;;;;;;0.73;0.50;;;12.90;93.50;;;;;;4958283;28;20038;-75
2023/04/16 12:21:45;;;;;;;0.93;0.60;;;13.10;93.10;;;;;;4958506;28;20057;-75
2023/04/16 12:24:23;;;;;;;0.88;0.80;;;13.00;91.70;;;;;;4975848;28;20030;-75
2023/04/16 12:26:55;;;;;;;1.33;0.40;;;12.70;91.70;;;;;;4975560;28;20114;-75
2023/04/16 12:29:23;;;;;;;0.50;0.50;;;12.80;91.40;;;;;;4975447;28;20488;-76
2023/04/16 12:31:50;;;;;;;0.40;0.35;;;12.60;91.20;;;;;;4975369;28;20054;-76
2023/04/16 12:34:17;;;;;;;1.17;0.98;;;12.80;91.60;;;;;;4975375;28;20062;-75
2023/04/16 12:36:44;;;;;;;2.50;1.20;;;12.90;90.60;;;;;;4957772;28;20022;-76
2023/04/16 12:39:11;;;;;;;0.57;0.52;;;13.00;91.70;;;;;;4957810;28;20034;-76
2023/04/16 12:41:38;;;;;;;0.50;0.50;;;13.00;93.30;;;;;;4975533;28;20026;-76
2023/04/16 12:44:13;;;;;;;1.10;0.70;;;12.80;92.00;;;;;;4957640;28;20073;-76
2023/04/16 12:46:42;;;;;;;0.38;0.38;;;12.70;92.90;;;;;;4974854;28;20093;-75
2023/04/16 12:49:09;;;;;;;0.32;0.32;;;12.70;92.70;;;;;;4974768;28;20130;-76
2023/04/16 12:51:36;;;;;;;0.70;0.70;;;12.80;92.10;;;;;;4975361;28;20018;-76